Kalymnos, Greece
Current Conditions -  °F | °C
As of 7:50 AM on Sunday 26 Oct 2014 (Local Time) from LGKO Reporting Station
Scattered Clouds Scattered Clouds  
Wind Chill: 61°   Ceiling: Unl
Heat Index: 61°   Visibility: 6mi
Dew Point: 57°   Wind: 0mph
Humidity: 88%   Direction: NA
Pressure: 29.91"   Gusts: NA
Location:  37°N, 26.97°E
Report Text: LGKO 260450Z 00000KT 9999 FEW016CB SCT020 16/14 Q1013
Loading
Personal Weather Stations






























Interactive Weather Map
Tropical Storm Tracking
New forecast layout! Learn more

10-Day Weather Forecast

Advertisements
Track Severe Weather on mobile